Terminal Aerodrome Forecast
Issued by NWS

Home | Current Version | Previous Version | Text Only | Print | Product List | Glossary On
Versions: 1 2 3 4 5 6 7 8 9 10 11 12 13 14 15
000
FTUS43 KGRB 271414 AAB
TAFRHI
TAF AMD
KRHI 271414Z 2714/2812 28012G20KT P6SM -SHRA OVC012
     FM272200 30009KT P6SM -SHRA OVC010
     FM280200 32006KT 5SM -SHRA OVC008
     FM280600 34007KT P6SM OVC008 PROB30 2806/2807 2SM -SHRA OVC003
     FM280700 35007KT P6SM OVC003 PROB30 2807/2808 4SM -SHRA
     FM281100 02007KT P6SM OVC003=

USA.gov is the U.S. government's official web portal to all federal, state and local government web resources and services.